createdAt,value
2018-12-17T00:00:26.972Z,0.75
2018-12-17T00:01:26.959Z,0.80
2018-12-17T00:02:26.953Z,0.87
2018-12-17T00:03:26.940Z,0.90
2018-12-17T00:04:26.925Z,0.80
2018-12-17T00:05:26.915Z,0.83
2018-12-17T00:06:26.904Z,0.80
2018-12-17T00:07:26.892Z,0.79
2018-12-17T00:08:31.963Z,0.80
2018-12-17T00:09:26.870Z,0.77
2018-12-17T00:10:26.905Z,0.80
2018-12-17T00:11:26.848Z,0.84
2018-12-17T00:12:26.841Z,0.79
2018-12-17T00:13:26.828Z,0.83
2018-12-17T00:14:26.813Z,0.93
2018-12-17T00:15:26.803Z,0.90
2018-12-17T00:16:26.789Z,1.02
2018-12-17T00:17:26.780Z,0.95
2018-12-17T00:18:26.768Z,0.98
2018-12-17T00:19:26.758Z,1.02
2018-12-17T00:20:26.745Z,0.95
2018-12-17T00:21:26.741Z,0.93
2018-12-17T00:22:26.731Z,0.87
2018-12-17T00:23:26.713Z,0.87
2018-12-17T00:24:26.704Z,0.75
2018-12-17T00:25:26.696Z,0.71
2018-12-17T00:26:26.683Z,0.83
2018-12-17T00:27:26.674Z,0.80
2018-12-17T00:28:26.662Z,0.80
2018-12-17T00:29:26.647Z,0.95
2018-12-17T00:30:26.641Z,0.95
2018-12-17T00:31:26.642Z,0.97
2018-12-17T00:32:26.645Z,0.86
2018-12-17T00:33:26.652Z,0.99
2018-12-17T00:34:26.594Z,0.99
2018-12-17T00:35:26.595Z,1.04
2018-12-17T00:36:26.598Z,1.04
2018-12-17T00:37:26.602Z,1.02
2018-12-17T00:38:26.547Z,0.84
2018-12-17T00:39:26.535Z,0.79
2018-12-17T00:40:26.525Z,0.80
2018-12-17T00:41:26.513Z,0.86
2018-12-17T00:42:26.507Z,0.86
2018-12-17T00:43:26.493Z,0.90
2018-12-17T00:44:26.478Z,0.93
2018-12-17T00:45:26.468Z,0.87
2018-12-17T00:46:26.456Z,0.80
2018-12-17T00:47:26.459Z,0.86
2018-12-17T00:48:26.434Z,0.87
2018-12-17T00:49:26.432Z,0.87
2018-12-17T00:50:26.411Z,0.91
2018-12-17T00:51:26.400Z,0.95
2018-12-17T00:52:26.388Z,0.97
2018-12-17T00:53:26.379Z,0.98
2018-12-17T00:54:26.370Z,0.87
2018-12-17T00:55:26.356Z,0.80
2018-12-17T00:56:26.347Z,0.68
2018-12-17T00:57:26.333Z,0.66
2018-12-17T00:58:26.321Z,0.71
2018-12-17T00:59:26.315Z,0.73
2018-12-17T01:00:26.300Z,0.97
2018-12-17T01:01:26.288Z,0.91
2018-12-17T01:02:26.280Z,0.99
2018-12-17T01:03:26.267Z,1.02
2018-12-17T01:04:26.255Z,1.09
2018-12-17T01:05:26.245Z,1.12
2018-12-17T01:06:26.234Z,1.09
2018-12-17T01:07:26.223Z,1.07
2018-12-17T01:08:26.211Z,1.09
2018-12-17T01:09:26.200Z,1.11
2018-12-17T01:10:26.192Z,1.08
2018-12-17T01:11:26.179Z,1.15
2018-12-17T01:12:26.174Z,1.11
2018-12-17T01:13:26.161Z,1.23
2018-12-17T01:14:26.151Z,1.22
2018-12-17T01:15:26.136Z,1.09
2018-12-17T01:16:26.614Z,1.11
2018-12-17T01:17:26.156Z,1.07
2018-12-17T01:18:26.104Z,0.95
2018-12-17T01:19:26.092Z,0.87
2018-12-17T01:20:26.085Z,0.86
2018-12-17T01:21:26.072Z,0.93
2018-12-17T01:22:26.059Z,0.90
2018-12-17T01:23:26.047Z,1.04
2018-12-17T01:24:26.034Z,0.99
2018-12-17T01:25:26.022Z,1.02
2018-12-17T01:26:26.012Z,1.09
2018-12-17T01:27:26.000Z,1.08
2018-12-17T01:28:25.993Z,1.05
2018-12-17T01:29:25.978Z,1.08
2018-12-17T01:30:25.967Z,1.22
2018-12-17T01:31:25.957Z,1.15
2018-12-17T01:32:25.946Z,1.11
2018-12-17T01:33:25.939Z,1.08
2018-12-17T01:34:25.938Z,1.19
2018-12-17T01:35:25.910Z,1.27
2018-12-17T01:36:25.901Z,1.23
2018-12-17T01:37:25.889Z,1.16
2018-12-17T01:38:25.881Z,1.05
2018-12-17T01:39:25.867Z,1.02
2018-12-17T01:40:25.856Z,1.02
2018-12-17T01:41:25.847Z,0.90
2018-12-17T01:42:25.845Z,0.93
2018-12-17T01:43:25.823Z,0.99
2018-12-17T01:44:25.817Z,0.97
2018-12-17T01:45:25.803Z,0.99
2018-12-17T01:46:25.799Z,1.05
2018-12-17T01:47:25.779Z,1.04
2018-12-17T01:48:25.772Z,1.15
2018-12-17T01:49:25.757Z,1.05
2018-12-17T01:50:25.745Z,1.23
2018-12-17T01:51:25.734Z,1.22
2018-12-17T01:52:25.722Z,1.35
2018-12-17T01:53:25.711Z,1.28
2018-12-17T01:54:25.705Z,1.26
2018-12-17T01:55:25.691Z,1.30
2018-12-17T01:56:25.677Z,1.01
2018-12-17T01:57:25.666Z,0.97
2018-12-17T01:58:29.181Z,0.98
2018-12-17T01:59:25.643Z,0.99
2018-12-17T02:00:25.634Z,1.11
2018-12-17T02:01:25.624Z,1.15
2018-12-17T02:02:25.609Z,1.26
2018-12-17T02:03:25.597Z,1.26
2018-12-17T02:04:25.587Z,1.22
2018-12-17T02:05:25.579Z,1.27
2018-12-17T02:06:25.568Z,1.26
2018-12-17T02:07:25.557Z,1.26
2018-12-17T02:08:25.545Z,1.22
2018-12-17T02:09:25.626Z,1.30
2018-12-17T02:10:25.524Z,1.27
2018-12-17T02:11:25.511Z,1.31
2018-12-17T02:12:25.500Z,1.20
2018-12-17T02:13:25.488Z,1.35
2018-12-17T02:14:25.544Z,1.23
2018-12-17T02:15:25.469Z,1.39
2018-12-17T02:16:25.461Z,1.30
2018-12-17T02:17:25.446Z,1.05
2018-12-17T02:18:25.433Z,1.09
2018-12-17T02:19:25.441Z,1.02
2018-12-17T02:20:25.417Z,1.08
2018-12-17T02:21:25.405Z,1.05
2018-12-17T02:22:25.389Z,1.12
2018-12-17T02:23:25.386Z,1.05
2018-12-17T02:24:25.365Z,1.20
2018-12-17T02:25:25.357Z,1.20
2018-12-17T02:26:25.349Z,1.17
2018-12-17T02:27:25.337Z,1.22
2018-12-17T02:28:25.323Z,1.26
2018-12-17T02:29:25.312Z,1.17
2018-12-17T02:30:25.309Z,1.17
2018-12-17T02:31:25.295Z,1.26
2018-12-17T02:32:25.279Z,1.17
2018-12-17T02:33:25.267Z,1.15
2018-12-17T02:34:25.257Z,1.12
2018-12-17T02:35:25.339Z,1.07
2018-12-17T02:36:25.235Z,1.08
2018-12-17T02:37:25.225Z,1.09
2018-12-17T02:38:25.211Z,1.02
2018-12-17T02:39:25.203Z,1.05
2018-12-17T02:40:25.190Z,1.08
2018-12-17T02:41:25.184Z,1.09
2018-12-17T02:42:25.169Z,1.27
2018-12-17T02:43:25.161Z,1.23
2018-12-17T02:44:25.147Z,1.28
2018-12-17T02:45:25.136Z,1.36
2018-12-17T02:46:25.131Z,1.38
2018-12-17T02:47:25.119Z,1.36
2018-12-17T02:48:25.108Z,1.36
2018-12-17T02:49:25.098Z,1.35
2018-12-17T02:50:25.082Z,1.26
2018-12-17T02:51:25.067Z,1.26
2018-12-17T02:52:25.056Z,1.26
2018-12-17T02:53:25.045Z,1.23
2018-12-17T02:54:25.037Z,1.20
2018-12-17T02:55:25.025Z,1.22
2018-12-17T02:56:25.014Z,1.26
2018-12-17T02:57:25.002Z,1.34
2018-12-17T02:58:24.993Z,1.34
2018-12-17T02:59:24.978Z,1.45
2018-12-17T03:00:24.982Z,1.41
2018-12-17T03:01:24.956Z,1.35
2018-12-17T03:02:24.944Z,1.23
2018-12-17T03:03:24.934Z,1.09
2018-12-17T03:04:24.923Z,1.07
2018-12-17T03:05:24.911Z,1.11
2018-12-17T03:06:24.903Z,1.16
2018-12-17T03:07:24.888Z,0.99
2018-12-17T03:08:24.875Z,1.05
2018-12-17T03:09:24.867Z,1.17
2018-12-17T03:10:24.864Z,1.20
2018-12-17T03:11:24.848Z,1.30
2018-12-17T03:12:24.838Z,1.27
2018-12-17T03:13:24.819Z,1.12
2018-12-17T03:14:24.812Z,1.01
2018-12-17T03:15:24.799Z,1.05
2018-12-17T03:16:24.786Z,1.04
2018-12-17T03:17:24.778Z,1.12
2018-12-17T03:18:24.768Z,1.17
2018-12-17T03:19:24.756Z,1.22
2018-12-17T03:20:24.741Z,1.26
2018-12-17T03:21:24.730Z,1.27
2018-12-17T03:22:24.720Z,1.23
2018-12-17T03:23:24.709Z,1.36
2018-12-17T03:24:24.697Z,1.30
2018-12-17T03:25:24.691Z,1.39
2018-12-17T03:26:24.675Z,1.42
2018-12-17T03:27:24.664Z,1.44
2018-12-17T03:28:24.653Z,1.41
2018-12-17T03:29:24.645Z,1.53
2018-12-17T03:30:24.632Z,1.55
2018-12-17T03:31:24.623Z,1.52
2018-12-17T03:32:24.623Z,1.55
2018-12-17T03:33:24.598Z,1.59
2018-12-17T03:34:24.586Z,1.56
2018-12-17T03:35:24.574Z,1.67
2018-12-17T03:36:24.571Z,1.63
2018-12-17T03:37:24.552Z,1.74
2018-12-17T03:38:24.542Z,1.75
2018-12-17T03:39:24.537Z,1.71
2018-12-17T03:40:24.519Z,1.75
2018-12-17T03:41:24.509Z,1.74
2018-12-17T03:42:24.499Z,1.81
2018-12-17T03:43:24.484Z,1.74
2018-12-17T03:44:24.474Z,1.71
2018-12-17T03:45:24.463Z,1.73
2018-12-17T03:46:24.451Z,1.74
2018-12-17T03:47:24.449Z,1.73
2018-12-17T03:48:24.429Z,1.77
2018-12-17T03:49:24.417Z,1.77
2018-12-17T03:50:24.407Z,1.71
2018-12-17T03:51:24.395Z,1.74
2018-12-17T03:52:24.386Z,1.73
2018-12-17T03:53:24.374Z,1.69
2018-12-17T03:54:24.362Z,1.62
2018-12-17T03:55:24.360Z,1.55
2018-12-17T03:56:24.341Z,1.53
2018-12-17T03:57:24.328Z,1.53
2018-12-17T03:58:24.318Z,1.55
2018-12-17T03:59:24.409Z,1.49
2018-12-17T04:00:24.314Z,1.55
2018-12-17T04:01:24.289Z,1.53
2018-12-17T04:02:24.280Z,1.46
2018-12-17T04:03:24.263Z,1.53
2018-12-17T04:04:24.252Z,1.45
2018-12-17T04:05:24.251Z,1.52
2018-12-17T04:06:24.227Z,1.57
2018-12-17T04:07:24.218Z,1.62
2018-12-17T04:08:24.205Z,1.63
2018-12-17T04:09:24.197Z,1.67
2018-12-17T04:10:24.187Z,1.69
2018-12-17T04:11:24.174Z,1.74
2018-12-17T04:12:24.162Z,1.69
2018-12-17T04:13:24.150Z,1.71
2018-12-17T04:14:24.138Z,1.81
2018-12-17T04:15:24.131Z,1.73
2018-12-17T04:16:24.116Z,1.71
2018-12-17T04:17:24.106Z,1.84
2018-12-17T04:18:24.095Z,1.69
2018-12-17T04:19:24.083Z,1.73
2018-12-17T04:20:24.079Z,1.73
2018-12-17T04:21:24.061Z,1.71
2018-12-17T04:22:24.049Z,1.64
2018-12-17T04:23:24.039Z,1.71
2018-12-17T04:24:24.030Z,1.71
2018-12-17T04:25:24.022Z,1.71
2018-12-17T04:26:24.006Z,1.75
2018-12-17T04:27:23.998Z,1.71
2018-12-17T04:28:23.988Z,1.73
2018-12-17T04:29:23.974Z,1.75
2018-12-17T04:30:23.962Z,1.71
2018-12-17T04:31:23.950Z,1.73
2018-12-17T04:32:23.939Z,1.89
2018-12-17T04:33:23.929Z,1.85
2018-12-17T04:34:23.919Z,1.91
2018-12-17T04:35:23.908Z,1.96
2018-12-17T04:36:23.901Z,1.92
2018-12-17T04:37:23.893Z,1.96
2018-12-17T04:38:23.881Z,1.95
2018-12-17T04:39:23.866Z,1.93
2018-12-17T04:40:23.858Z,1.93
2018-12-17T04:41:23.841Z,1.96
2018-12-17T04:42:23.835Z,2.03
2018-12-17T04:43:23.824Z,1.98
2018-12-17T04:44:23.810Z,2.06
2018-12-17T04:45:23.803Z,1.98
2018-12-17T04:46:23.786Z,2.03
2018-12-17T04:47:23.778Z,2.05
2018-12-17T04:48:23.768Z,2.00
2018-12-17T04:49:23.752Z,2.11
2018-12-17T04:50:23.740Z,2.10
2018-12-17T04:51:23.730Z,2.09
2018-12-17T04:52:23.722Z,2.06
2018-12-17T04:53:23.710Z,2.18
2018-12-17T04:54:23.696Z,2.18
2018-12-17T04:55:23.687Z,2.06
2018-12-17T04:56:23.676Z,2.17
2018-12-17T04:57:23.663Z,2.16
2018-12-17T04:58:23.653Z,2.03
2018-12-17T04:59:23.649Z,2.10
2018-12-17T05:00:23.636Z,2.09
2018-12-17T05:01:23.629Z,2.00
2018-12-17T05:02:23.607Z,2.02
2018-12-17T05:03:23.595Z,2.05
2018-12-17T05:04:23.584Z,2.13
2018-12-17T05:05:23.572Z,2.06
2018-12-17T05:06:23.570Z,2.03
2018-12-17T05:07:23.554Z,2.10
2018-12-17T05:08:23.540Z,2.17
2018-12-17T05:09:23.530Z,2.10
2018-12-17T05:10:23.518Z,2.11
2018-12-17T05:11:23.508Z,2.14
2018-12-17T05:12:23.497Z,2.05
2018-12-17T05:13:23.487Z,2.03
2018-12-17T05:14:23.479Z,2.05
2018-12-17T05:15:23.463Z,2.05
2018-12-17T05:16:23.453Z,2.05
2018-12-17T05:17:23.440Z,1.98
2018-12-17T05:18:23.427Z,1.99
2018-12-17T05:19:23.419Z,1.96
2018-12-17T05:20:23.407Z,1.95
2018-12-17T05:21:23.394Z,1.92
2018-12-17T05:22:23.385Z,1.91
2018-12-17T05:23:23.373Z,1.87
2018-12-17T05:24:23.364Z,1.82
2018-12-17T05:25:23.353Z,1.80
2018-12-17T05:26:23.340Z,1.81
2018-12-17T05:27:23.328Z,1.77
2018-12-17T05:28:23.320Z,1.80
2018-12-17T05:29:23.306Z,1.78
2018-12-17T05:30:23.297Z,1.81
2018-12-17T05:31:23.284Z,1.75
2018-12-17T05:32:23.274Z,1.84
2018-12-17T05:33:23.261Z,1.75
2018-12-17T05:34:23.250Z,1.80
2018-12-17T05:35:23.240Z,1.89
2018-12-17T05:36:23.234Z,1.93
2018-12-17T05:37:23.217Z,2.00
2018-12-17T05:38:23.206Z,1.91
2018-12-17T05:39:23.194Z,1.92
2018-12-17T05:40:23.183Z,1.92
2018-12-17T05:41:23.173Z,1.91
2018-12-17T05:42:23.162Z,1.82
2018-12-17T05:43:23.150Z,1.85
2018-12-17T05:44:23.139Z,1.85
2018-12-17T05:45:23.136Z,1.77
2018-12-17T05:46:23.116Z,1.78
2018-12-17T05:47:23.109Z,1.77
2018-12-17T05:48:23.093Z,1.75
2018-12-17T05:49:23.082Z,1.85
2018-12-17T05:50:23.074Z,1.85
2018-12-17T05:51:23.061Z,1.96
2018-12-17T05:52:23.054Z,1.81
2018-12-17T05:53:23.064Z,1.85
2018-12-17T05:54:23.031Z,1.81
2018-12-17T05:55:23.017Z,1.78
2018-12-17T05:56:23.009Z,1.73
2018-12-17T05:57:23.044Z,1.81
2018-12-17T05:58:22.983Z,1.73
2018-12-17T05:59:28.550Z,1.85
2018-12-17T06:00:22.960Z,1.77
2018-12-17T06:01:22.949Z,1.75
2018-12-17T06:02:22.941Z,1.77
2018-12-17T06:03:22.931Z,1.77
2018-12-17T06:04:22.916Z,1.85
2018-12-17T06:05:22.906Z,1.92
2018-12-17T06:06:22.894Z,1.95
2018-12-17T06:07:22.885Z,1.82
2018-12-17T06:08:22.875Z,1.81
2018-12-17T06:09:22.869Z,1.77
2018-12-17T06:10:22.853Z,1.73
2018-12-17T06:11:22.848Z,1.63
2018-12-17T06:12:22.831Z,1.71
2018-12-17T06:13:22.817Z,1.77
2018-12-17T06:14:22.808Z,1.77
2018-12-17T06:15:22.796Z,1.81
2018-12-17T06:16:22.794Z,1.87
2018-12-17T06:17:22.799Z,1.84
2018-12-17T06:18:22.810Z,1.81
2018-12-17T06:19:22.814Z,1.91
2018-12-17T06:20:22.750Z,1.96
2018-12-17T06:21:22.748Z,1.96
2018-12-17T06:22:22.755Z,2.00
2018-12-17T06:23:22.755Z,2.06
2018-12-17T06:24:22.695Z,2.06
2018-12-17T06:25:22.762Z,2.05
2018-12-17T06:26:22.679Z,2.03
2018-12-17T06:27:22.664Z,2.10
2018-12-17T06:28:22.650Z,2.06
2018-12-17T06:29:22.645Z,2.03
2018-12-17T06:30:22.628Z,2.17
2018-12-17T06:31:22.619Z,2.11
2018-12-17T06:32:22.609Z,2.02
2018-12-17T06:33:22.604Z,2.09
2018-12-17T06:34:22.583Z,2.10
2018-12-17T06:35:22.575Z,2.13
2018-12-17T06:36:22.561Z,2.16
2018-12-17T06:37:22.550Z,2.11
2018-12-17T06:38:22.539Z,2.10
2018-12-17T06:39:22.528Z,2.02
2018-12-17T06:40:22.516Z,1.98
2018-12-17T06:41:22.515Z,1.96
2018-12-17T06:42:22.495Z,1.98
2018-12-17T06:43:22.489Z,1.98
2018-12-17T06:44:22.475Z,1.84
2018-12-17T06:45:22.466Z,1.84
2018-12-17T06:46:22.451Z,1.80
2018-12-17T06:47:22.439Z,1.81
2018-12-17T06:48:22.431Z,1.93
2018-12-17T06:49:22.422Z,1.98
2018-12-17T06:50:22.407Z,1.91
2018-12-17T06:51:22.400Z,2.05
2018-12-17T06:52:22.385Z,2.06
2018-12-17T06:53:22.374Z,2.05
2018-12-17T06:54:22.362Z,2.10
2018-12-17T06:55:22.351Z,2.06
2018-12-17T06:56:22.341Z,2.16
2018-12-17T06:57:22.330Z,2.06
2018-12-17T06:58:22.319Z,2.10
2018-12-17T06:59:22.312Z,2.11
2018-12-17T07:00:22.297Z,2.06
2018-12-17T07:01:22.291Z,2.09
2018-12-17T07:02:22.275Z,2.11
2018-12-17T07:03:22.262Z,2.11
2018-12-17T07:04:22.257Z,2.21
2018-12-17T07:05:22.241Z,2.11
2018-12-17T07:06:22.229Z,2.17
2018-12-17T07:07:22.223Z,2.14
2018-12-17T07:08:22.208Z,2.09
2018-12-17T07:09:22.203Z,2.23
2018-12-17T07:10:22.188Z,2.21
2018-12-17T07:11:22.182Z,2.28
2018-12-17T07:12:22.174Z,2.27
2018-12-17T07:13:22.161Z,2.21
2018-12-17T07:14:22.152Z,2.14
2018-12-17T07:15:22.140Z,2.17
2018-12-17T07:16:22.117Z,2.17
2018-12-17T07:17:22.107Z,2.23
2018-12-17T07:18:22.095Z,2.27
2018-12-17T07:19:22.086Z,2.28
2018-12-17T07:20:22.076Z,2.27
2018-12-17T07:21:22.068Z,2.24
2018-12-17T07:22:22.053Z,2.23
2018-12-17T07:23:22.041Z,2.23
2018-12-17T07:24:22.030Z,2.21
2018-12-17T07:25:22.019Z,2.20
2018-12-17T07:26:22.007Z,2.35
2018-12-17T07:27:22.000Z,2.35
2018-12-17T07:28:21.992Z,2.29
2018-12-17T07:29:21.979Z,2.38
2018-12-17T07:30:21.967Z,2.36
2018-12-17T07:31:21.954Z,2.32
2018-12-17T07:32:21.942Z,2.27
2018-12-17T07:33:21.931Z,2.23
2018-12-17T07:34:21.919Z,2.24
2018-12-17T07:35:21.908Z,2.17
2018-12-17T07:36:21.901Z,2.17
2018-12-17T07:37:21.886Z,2.20
2018-12-17T07:38:21.875Z,2.29
2018-12-17T07:39:21.864Z,2.18
2018-12-17T07:40:21.855Z,2.21
2018-12-17T07:41:21.845Z,2.23
2018-12-17T07:42:21.835Z,2.27
2018-12-17T07:43:21.819Z,2.28
2018-12-17T07:44:21.808Z,2.27
2018-12-17T07:45:21.808Z,2.23
2018-12-17T07:46:21.785Z,2.28
2018-12-17T07:47:21.775Z,2.27
2018-12-17T07:48:21.765Z,2.29
2018-12-17T07:49:21.752Z,2.27
2018-12-17T07:50:21.743Z,2.28
2018-12-17T07:51:21.732Z,2.27
2018-12-17T07:52:21.727Z,2.24
2018-12-17T07:53:21.712Z,2.39
2018-12-17T07:54:21.696Z,2.39
2018-12-17T07:55:21.686Z,2.32
2018-12-17T07:56:21.676Z,2.44
2018-12-17T07:57:21.665Z,2.52
2018-12-17T07:58:21.658Z,2.59
2018-12-17T07:59:21.642Z,2.59
2018-12-17T08:00:21.636Z,2.59
2018-12-17T08:01:21.623Z,2.75
2018-12-17T08:02:21.611Z,2.72
2018-12-17T08:03:21.601Z,2.72
2018-12-17T08:04:21.592Z,2.72
2018-12-17T08:05:21.581Z,2.76
2018-12-17T08:06:21.567Z,2.73
2018-12-17T08:07:21.554Z,2.78
2018-12-17T08:08:21.549Z,2.86
2018-12-17T08:09:21.532Z,2.91
2018-12-17T08:10:21.526Z,2.79
2018-12-17T08:11:21.528Z,2.93
2018-12-17T08:12:21.498Z,2.90
2018-12-17T08:13:21.493Z,2.96
2018-12-17T08:14:21.478Z,3.02
2018-12-17T08:15:21.491Z,2.96
2018-12-17T08:16:21.458Z,2.99
2018-12-17T08:17:21.445Z,3.09
2018-12-17T08:18:21.445Z,3.08
2018-12-17T08:19:21.433Z,3.09
2018-12-17T08:20:21.411Z,3.14
2018-12-17T08:21:21.400Z,3.17
2018-12-17T08:22:21.391Z,3.18
2018-12-17T08:23:21.377Z,3.25
2018-12-17T08:24:21.365Z,3.26
2018-12-17T08:25:21.354Z,3.18
2018-12-17T08:26:21.348Z,3.32
2018-12-17T08:27:21.347Z,3.33
2018-12-17T08:28:21.325Z,3.35
2018-12-17T08:29:21.323Z,3.43
2018-12-17T08:30:21.301Z,3.33
2018-12-17T08:31:21.295Z,3.47
2018-12-17T08:32:21.291Z,3.37
2018-12-17T08:33:21.268Z,3.33
2018-12-17T08:34:21.253Z,3.44
2018-12-17T08:35:21.245Z,3.47
2018-12-17T08:36:21.236Z,3.47
2018-12-17T08:37:21.228Z,3.55
2018-12-17T08:38:21.211Z,3.59
2018-12-17T08:39:21.196Z,3.54
2018-12-17T08:40:21.194Z,3.59
2018-12-17T08:41:21.177Z,3.48
2018-12-17T08:42:21.166Z,3.58
2018-12-17T08:43:21.217Z,3.59
2018-12-17T08:44:21.141Z,3.58
2018-12-17T08:45:21.146Z,3.65
2018-12-17T08:46:21.125Z,3.68
2018-12-17T08:47:21.327Z,3.72
2018-12-17T08:48:21.103Z,3.75
2018-12-17T08:49:21.087Z,3.73
2018-12-17T08:50:21.077Z,3.73
2018-12-17T08:51:23.076Z,3.73
2018-12-17T08:52:21.056Z,3.84
2018-12-17T08:53:21.041Z,3.81
2018-12-17T08:54:21.041Z,3.80
2018-12-17T08:55:21.034Z,3.83
2018-12-17T08:56:21.017Z,3.90
2018-12-17T08:57:20.998Z,3.90
2018-12-17T08:58:20.998Z,3.91
2018-12-17T08:59:20.971Z,3.98
2018-12-17T09:00:20.958Z,3.97
2018-12-17T09:01:20.957Z,3.98
2018-12-17T09:02:20.935Z,3.90
2018-12-17T09:03:20.923Z,3.89
2018-12-17T09:04:20.925Z,3.97
2018-12-17T09:05:20.900Z,3.97
2018-12-17T09:06:20.889Z,4.01
2018-12-17T09:07:20.902Z,4.01
2018-12-17T09:08:20.866Z,4.04
2018-12-17T09:09:20.859Z,4.04
2018-12-17T09:10:20.843Z,4.07
2018-12-17T09:11:20.835Z,4.16
2018-12-17T09:12:20.833Z,4.16
2018-12-17T09:13:20.812Z,4.12
2018-12-17T09:14:20.798Z,4.16
2018-12-17T09:15:20.785Z,4.18
2018-12-17T09:16:20.776Z,4.17
2018-12-17T09:17:20.765Z,4.12
2018-12-17T09:18:20.756Z,4.30
2018-12-17T09:19:20.750Z,4.35
2018-12-17T09:20:20.727Z,4.28
2018-12-17T09:21:20.723Z,4.43
2018-12-17T09:22:20.706Z,4.43
2018-12-17T09:23:20.694Z,4.45
2018-12-17T09:24:20.685Z,4.42
2018-12-17T09:25:20.675Z,4.54
2018-12-17T09:26:20.660Z,4.59
2018-12-17T09:27:20.656Z,4.60
2018-12-17T09:28:20.641Z,4.61
2018-12-17T09:29:20.629Z,4.61
2018-12-17T09:30:20.618Z,4.69
2018-12-17T09:31:20.604Z,4.66
2018-12-17T09:32:20.596Z,4.74
2018-12-17T09:33:20.581Z,4.69
2018-12-17T09:34:20.571Z,4.72
2018-12-17T09:35:20.563Z,4.77
2018-12-17T09:36:20.548Z,4.78
2018-12-17T09:37:20.538Z,4.78
2018-12-17T09:38:20.522Z,4.87
2018-12-17T09:39:20.510Z,4.84
2018-12-17T09:40:20.504Z,4.97
2018-12-17T09:41:20.494Z,4.95
2018-12-17T09:42:20.481Z,4.61
2018-12-17T09:43:20.463Z,4.41
2018-12-17T09:44:20.457Z,4.42
2018-12-17T09:45:20.441Z,4.54
2018-12-17T09:46:20.431Z,4.56
2018-12-17T09:47:20.418Z,4.56
2018-12-17T09:48:20.406Z,4.78
2018-12-17T09:49:20.395Z,4.71
2018-12-17T09:50:20.385Z,4.74
2018-12-17T09:51:20.373Z,4.78
2018-12-17T09:52:20.362Z,4.84
2018-12-17T09:53:20.350Z,4.92
2018-12-17T09:54:20.360Z,5.02
2018-12-17T09:55:20.326Z,5.03
2018-12-17T09:56:20.315Z,4.99
2018-12-17T09:57:20.303Z,5.03
2018-12-17T09:58:20.293Z,5.13
2018-12-17T09:59:20.285Z,5.18
2018-12-17T10:00:25.454Z,5.17
2018-12-17T10:01:20.257Z,5.20
2018-12-17T10:02:20.245Z,5.20
2018-12-17T10:03:20.239Z,5.26
2018-12-17T10:04:20.232Z,5.18
2018-12-17T10:05:20.214Z,5.20
2018-12-17T10:06:20.201Z,5.26
2018-12-17T10:07:20.188Z,5.23
2018-12-17T10:08:20.177Z,5.17
2018-12-17T10:09:20.169Z,5.26
2018-12-17T10:10:20.154Z,5.26
2018-12-17T10:11:20.148Z,5.20
2018-12-17T10:12:20.133Z,5.28
2018-12-17T10:13:20.123Z,5.38
2018-12-17T10:14:20.107Z,5.33
2018-12-17T10:15:20.098Z,5.32
2018-12-17T10:16:20.094Z,5.31
2018-12-17T10:17:20.074Z,5.32
2018-12-17T10:18:20.068Z,5.38
2018-12-17T10:19:20.051Z,5.43
2018-12-17T10:20:20.042Z,5.33
2018-12-17T10:21:20.029Z,5.38
2018-12-17T10:22:20.020Z,5.46
2018-12-17T10:23:20.008Z,5.46
2018-12-17T10:24:19.995Z,5.47
2018-12-17T10:25:19.984Z,5.50
2018-12-17T10:26:19.979Z,5.46
2018-12-17T10:27:19.972Z,5.50
2018-12-17T10:28:19.953Z,5.59
2018-12-17T10:29:19.938Z,5.49
2018-12-17T10:30:19.931Z,5.62
2018-12-17T10:31:19.917Z,5.61
2018-12-17T10:32:19.907Z,5.67
2018-12-17T10:33:19.897Z,5.57
2018-12-17T10:34:19.891Z,5.58
2018-12-17T10:35:19.873Z,5.57
2018-12-17T10:36:19.860Z,5.69
2018-12-17T10:37:19.863Z,5.57
2018-12-17T10:38:19.842Z,5.62
2018-12-17T10:39:19.826Z,5.77
2018-12-17T10:40:19.815Z,5.73
2018-12-17T10:41:19.812Z,5.69
2018-12-17T10:42:19.792Z,5.69
2018-12-17T10:43:19.782Z,5.69
2018-12-17T10:44:19.769Z,5.72
2018-12-17T10:45:19.759Z,5.66
2018-12-17T10:46:19.746Z,5.65
2018-12-17T10:47:19.735Z,5.67
2018-12-17T10:48:19.730Z,5.73
2018-12-17T10:49:19.717Z,5.77
2018-12-17T10:50:19.708Z,5.76
2018-12-17T10:51:19.690Z,5.75
2018-12-17T10:52:19.686Z,5.75
2018-12-17T10:53:19.674Z,5.69
2018-12-17T10:54:19.656Z,5.70
2018-12-17T10:55:19.652Z,5.67
2018-12-17T10:56:19.644Z,5.70
2018-12-17T10:57:19.630Z,5.72
2018-12-17T10:58:19.622Z,5.70
2018-12-17T10:59:19.602Z,5.67
2018-12-17T11:00:19.589Z,5.55
2018-12-17T11:01:19.588Z,5.39
2018-12-17T11:02:19.569Z,5.39
2018-12-17T11:03:19.563Z,5.31
2018-12-17T11:04:19.548Z,5.36
2018-12-17T11:05:19.534Z,5.47
2018-12-17T11:06:19.523Z,5.42
2018-12-17T11:07:19.516Z,5.50
2018-12-17T11:08:19.499Z,5.46
2018-12-17T11:09:19.491Z,5.49
2018-12-17T11:10:19.479Z,5.47
2018-12-17T11:11:19.466Z,5.47
2018-12-17T11:12:19.457Z,5.50
2018-12-17T11:13:19.448Z,5.57
2018-12-17T11:14:19.432Z,5.57
2018-12-17T11:15:19.428Z,5.55
2018-12-17T11:16:19.409Z,5.61
2018-12-17T11:17:19.399Z,5.66
2018-12-17T11:18:19.389Z,5.73
2018-12-17T11:19:19.377Z,5.76
2018-12-17T11:20:19.367Z,5.77
2018-12-17T11:21:19.355Z,5.80
2018-12-17T11:22:19.343Z,5.84
2018-12-17T11:23:19.332Z,5.75
2018-12-17T11:24:19.330Z,5.84
2018-12-17T11:25:19.315Z,5.79
2018-12-17T11:26:19.298Z,5.88
2018-12-17T11:27:19.286Z,5.98
2018-12-17T11:28:19.275Z,6.13
2018-12-17T11:29:19.267Z,5.98
2018-12-17T11:30:19.254Z,5.97
2018-12-17T11:31:19.244Z,5.90
2018-12-17T11:32:19.245Z,5.91
2018-12-17T11:33:19.222Z,5.88
2018-12-17T11:34:19.210Z,5.93
2018-12-17T11:35:19.202Z,5.93
2018-12-17T11:36:19.187Z,5.95
2018-12-17T11:37:19.180Z,6.05
2018-12-17T11:38:19.165Z,6.00
2018-12-17T11:39:19.154Z,5.98
2018-12-17T11:40:19.143Z,6.11
2018-12-17T11:41:19.131Z,6.08
2018-12-17T11:42:19.119Z,6.08
2018-12-17T11:43:19.113Z,6.05
2018-12-17T11:44:19.106Z,5.90
2018-12-17T11:45:19.092Z,5.87
2018-12-17T11:46:19.075Z,5.87
2018-12-17T11:47:19.070Z,5.73
2018-12-17T11:48:19.058Z,5.77
2018-12-17T11:49:19.047Z,5.90
2018-12-17T11:50:19.037Z,5.94
2018-12-17T11:51:19.023Z,6.02
2018-12-17T11:52:19.008Z,6.06
2018-12-17T11:53:18.996Z,6.05
2018-12-17T11:54:18.986Z,6.19
2018-12-17T11:55:18.973Z,6.24
2018-12-17T11:56:18.966Z,6.36
2018-12-17T11:57:18.950Z,6.37
2018-12-17T11:58:18.942Z,6.30
2018-12-17T11:59:18.941Z,6.23
2018-12-17T12:00:18.946Z,6.27
2018-12-17T12:01:18.947Z,6.45
2018-12-17T12:02:18.951Z,6.48
2018-12-17T12:03:18.892Z,6.62
2018-12-17T12:04:18.904Z,6.64
2018-12-17T12:05:18.898Z,6.72
2018-12-17T12:06:18.900Z,6.80
2018-12-17T12:07:18.839Z,6.70
2018-12-17T12:08:18.827Z,6.66
2018-12-17T12:09:18.816Z,6.73
2018-12-17T12:10:18.805Z,6.63
2018-12-17T12:11:18.800Z,6.70
2018-12-17T12:12:18.788Z,6.74
2018-12-17T12:13:18.771Z,6.82
2018-12-17T12:14:18.760Z,6.82
2018-12-17T12:15:18.755Z,6.63
2018-12-17T12:16:18.740Z,6.62
2018-12-17T12:17:18.726Z,6.62
2018-12-17T12:18:18.713Z,6.60
2018-12-17T12:19:18.703Z,6.55
2018-12-17T12:20:18.691Z,6.51
2018-12-17T12:21:18.679Z,6.48
2018-12-17T12:22:18.668Z,6.51
2018-12-17T12:23:18.656Z,6.51
2018-12-17T12:24:18.645Z,6.54
2018-12-17T12:25:18.634Z,6.62
2018-12-17T12:26:18.624Z,6.54
2018-12-17T12:27:18.610Z,6.67
2018-12-17T12:28:18.600Z,6.55
2018-12-17T12:29:18.587Z,6.62
2018-12-17T12:30:18.579Z,6.54
2018-12-17T12:31:18.566Z,6.67
2018-12-17T12:32:18.560Z,6.60
2018-12-17T12:33:18.541Z,6.48
2018-12-17T12:34:18.533Z,6.59
2018-12-17T12:35:18.521Z,6.46
2018-12-17T12:36:18.509Z,6.36
2018-12-17T12:37:18.498Z,6.19
2018-12-17T12:38:18.486Z,6.15
2018-12-17T12:39:18.475Z,6.11
2018-12-17T12:40:18.468Z,6.09
2018-12-17T12:41:18.461Z,6.06
2018-12-17T12:42:18.443Z,5.94
2018-12-17T12:43:18.435Z,6.02
2018-12-17T12:44:18.419Z,6.03
2018-12-17T12:45:18.410Z,6.02
2018-12-17T12:46:18.402Z,5.98
2018-12-17T12:47:18.388Z,5.97
2018-12-17T12:48:18.375Z,5.91
2018-12-17T12:49:18.363Z,5.85
2018-12-17T12:50:18.353Z,5.84
2018-12-17T12:51:18.340Z,5.61
2018-12-17T12:52:18.328Z,5.35
2018-12-17T12:53:18.316Z,5.05
2018-12-17T12:54:18.305Z,5.13
2018-12-17T12:55:18.296Z,4.88
2018-12-17T12:56:18.289Z,4.51
2018-12-17T12:57:18.271Z,4.35
2018-12-17T12:58:18.265Z,4.30
2018-12-17T12:59:18.249Z,4.27
2018-12-17T13:00:18.243Z,4.26
2018-12-17T13:01:18.225Z,4.28
2018-12-17T13:02:18.215Z,4.35
2018-12-17T13:03:18.204Z,4.30
2018-12-17T13:04:18.192Z,4.30
2018-12-17T13:05:18.184Z,4.42
2018-12-17T13:06:18.176Z,4.53
2018-12-17T13:07:18.162Z,4.59
2018-12-17T13:08:18.147Z,4.67
2018-12-17T13:09:18.145Z,4.79
2018-12-17T13:10:18.127Z,4.77
2018-12-17T13:11:18.116Z,4.75
2018-12-17T13:12:18.101Z,4.87
2018-12-17T13:13:18.091Z,4.85
2018-12-17T13:14:18.082Z,4.81
2018-12-17T13:15:18.070Z,4.92
2018-12-17T13:16:18.060Z,4.93
2018-12-17T13:17:18.048Z,5.06
2018-12-17T13:18:18.038Z,4.95